Time;durP1;ratioP1;P1;durP2;ratioP2;P2;SDS_P1;SDS_P2;PMS_P1;PMS_P2;Temp;Humidity;BMP_temperature;BMP_pressure;BME280_temperature;BME280_humidity;BME280_pressure;Samples;Min_cycle;Max_cycle;Signal;HPM_P1;HPM_P2
2024/01/17 00:02:19;;;;;;;0.30;0.30;;;;;;;;;;5066515;28;20281;-73
2024/01/17 00:04:50;;;;;;;0.30;0.30;;;;;;;;;;5045886;28;20255;-72
2024/01/17 00:07:16;;;;;;;0.30;0.30;;;;;;;;;;5067669;28;20236;-72
2024/01/17 00:09:43;;;;;;;0.30;0.30;;;;;;;;;;5046208;28;20224;-72
2024/01/17 00:12:10;;;;;;;0.30;0.30;;;;;;;;;;5067613;28;20244;-72
2024/01/17 00:14:36;;;;;;;0.30;0.30;;;;;;;;;;5045944;28;20278;-72
2024/01/17 00:17:03;;;;;;;0.30;0.30;;;;;;;;;;5065770;28;20262;-72
2024/01/17 00:19:30;;;;;;;0.90;0.90;;;;;;;;;;5047306;28;20209;-73
2024/01/17 00:21:57;;;;;;;0.30;0.30;;;;;;;;;;5063630;28;20287;-72
2024/01/17 00:24:24;;;;;;;0.30;0.30;;;;;;;;;;5049048;28;20276;-72
2024/01/17 00:26:50;;;;;;;0.40;0.40;;;;;;;;;;5062350;28;20302;-73
2024/01/17 00:29:17;;;;;;;0.30;0.30;;;;;;;;;;5050594;28;20211;-72
2024/01/17 00:31:43;;;;;;;0.30;0.30;;;;;;;;;;5060109;28;20264;-72
2024/01/17 00:34:10;;;;;;;0.30;0.30;;;;;;;;;;5052344;28;20232;-72
2024/01/17 00:36:36;;;;;;;0.30;0.30;;;;;;;;;;5058081;28;20242;-72
2024/01/17 00:39:04;;;;;;;0.30;0.30;;;;;;;;;;5054321;28;20248;-72
2024/01/17 00:41:30;;;;;;;0.40;0.40;;;;;;;;;;5056665;28;20451;-72
2024/01/17 00:43:57;;;;;;;0.30;0.30;;;;;;;;;;5055781;28;20277;-72
2024/01/17 00:46:23;;;;;;;0.40;0.40;;;;;;;;;;5054623;28;20239;-72
2024/01/17 00:48:49;;;;;;;0.30;0.30;;;;;;;;;;5057294;28;20201;-73
2024/01/17 00:51:22;;;;;;;0.30;0.30;;;;;;;;;;5052450;28;20239;-72
2024/01/17 00:53:48;;;;;;;0.30;0.30;;;;;;;;;;5057979;28;20244;-72
2024/01/17 00:56:16;;;;;;;0.30;0.30;;;;;;;;;;5052416;28;20247;-72
2024/01/17 00:58:42;;;;;;;0.30;0.30;;;;;;;;;;5059044;28;20236;-72
2024/01/17 01:01:09;;;;;;;0.30;0.30;;;;;;;;;;5050636;28;20264;-72
2024/01/17 01:03:36;;;;;;;0.30;0.30;;;;;;;;;;5060829;28;20212;-72
2024/01/17 01:06:02;;;;;;;0.30;0.30;;;;;;;;;;5048650;28;20575;-72
2024/01/17 01:08:29;;;;;;;0.40;0.40;;;;;;;;;;5062048;28;20203;-71
2024/01/17 01:10:55;;;;;;;0.40;0.40;;;;;;;;;;5047057;28;20246;-71
2024/01/17 01:13:23;;;;;;;0.30;0.30;;;;;;;;;;5063929;28;20535;-72
2024/01/17 01:15:50;;;;;;;0.30;0.30;;;;;;;;;;5045511;28;20446;-72
2024/01/17 01:18:16;;;;;;;0.40;0.40;;;;;;;;;;5065163;28;20236;-72
2024/01/17 01:20:43;;;;;;;0.30;0.30;;;;;;;;;;5043349;28;20465;-73
2024/01/17 01:23:09;;;;;;;0.30;0.30;;;;;;;;;;5067595;28;20231;-72
2024/01/17 01:25:35;;;;;;;0.30;0.30;;;;;;;;;;5041597;28;20303;-72
2024/01/17 01:28:02;;;;;;;1.50;1.50;;;;;;;;;;5069563;28;20224;-72
2024/01/17 01:30:30;;;;;;;0.40;0.40;;;;;;;;;;5039744;28;20252;-72
2024/01/17 01:32:57;;;;;;;0.60;0.60;;;;;;;;;;5070872;28;20200;-72
2024/01/17 01:35:23;;;;;;;0.30;0.30;;;;;;;;;;5038169;28;20519;-72
2024/01/17 01:37:49;;;;;;;0.30;0.30;;;;;;;;;;5072014;28;20226;-72
2024/01/17 01:40:16;;;;;;;0.30;0.30;;;;;;;;;;5035645;28;20218;-72
2024/01/17 01:42:43;;;;;;;0.30;0.30;;;;;;;;;;5074516;28;20432;-71
2024/01/17 01:45:09;;;;;;;0.30;0.30;;;;;;;;;;5039966;28;20444;-73
2024/01/17 01:47:37;;;;;;;0.40;0.40;;;;;;;;;;5075941;28;20276;-72
2024/01/17 01:50:05;;;;;;;0.37;0.37;;;;;;;;;;5044348;28;20276;-72
2024/01/17 01:52:31;;;;;;;0.33;0.33;;;;;;;;;;5065670;28;20250;-72
2024/01/17 01:54:58;;;;;;;0.30;0.30;;;;;;;;;;5044384;28;20206;-72
2024/01/17 01:57:25;;;;;;;0.30;0.30;;;;;;;;;;5065586;28;20261;-72
2024/01/17 01:59:51;;;;;;;0.30;0.30;;;;;;;;;;5044206;28;20275;-72
2024/01/17 02:02:17;;;;;;;0.30;0.30;;;;;;;;;;5065448;28;20248;-72
2024/01/17 02:04:45;;;;;;;0.30;0.30;;;;;;;;;;5043619;28;20218;-72
2024/01/17 02:07:13;;;;;;;0.30;0.30;;;;;;;;;;5065385;28;20239;-72
2024/01/17 02:09:40;;;;;;;0.30;0.30;;;;;;;;;;5044074;28;20243;-72
2024/01/17 02:12:07;;;;;;;0.40;0.40;;;;;;;;;;5064618;28;20308;-72
2024/01/17 02:14:35;;;;;;;0.40;0.40;;;;;;;;;;5044333;28;20232;-72
2024/01/17 02:17:02;;;;;;;0.30;0.30;;;;;;;;;;5063404;28;20239;-72
2024/01/17 02:19:28;;;;;;;0.40;0.40;;;;;;;;;;5045379;28;20405;-72
2024/01/17 02:21:56;;;;;;;0.30;0.30;;;;;;;;;;5061471;28;20245;-72
2024/01/17 02:24:24;;;;;;;0.30;0.30;;;;;;;;;;5047367;28;20233;-72
2024/01/17 02:26:50;;;;;;;0.30;0.30;;;;;;;;;;5059644;28;20298;-72
2024/01/17 02:29:17;;;;;;;0.30;0.30;;;;;;;;;;5048253;28;20271;-71
2024/01/17 02:31:44;;;;;;;0.40;0.40;;;;;;;;;;5058117;28;20448;-72
2024/01/17 02:34:10;;;;;;;0.30;0.30;;;;;;;;;;5050427;28;20210;-72
2024/01/17 02:36:36;;;;;;;0.40;0.40;;;;;;;;;;5056359;28;20305;-72
2024/01/17 02:39:03;;;;;;;0.30;0.30;;;;;;;;;;5052051;28;20224;-72
2024/01/17 02:41:32;;;;;;;0.30;0.30;;;;;;;;;;5054842;28;20235;-72
2024/01/17 02:43:58;;;;;;;0.30;0.30;;;;;;;;;;5053491;28;20447;-72
2024/01/17 02:46:26;;;;;;;0.30;0.30;;;;;;;;;;5053169;28;20489;-72
2024/01/17 02:48:53;;;;;;;0.30;0.30;;;;;;;;;;5054840;28;20241;-72
2024/01/17 02:51:19;;;;;;;0.30;0.30;;;;;;;;;;5051639;28;20324;-72
2024/01/17 02:53:46;;;;;;;0.40;0.40;;;;;;;;;;5056275;28;20206;-72
2024/01/17 02:56:14;;;;;;;0.40;0.40;;;;;;;;;;5049990;28;20312;-72
2024/01/17 02:58:41;;;;;;;0.40;0.40;;;;;;;;;;5057715;28;20283;-72
2024/01/17 03:01:08;;;;;;;0.40;0.40;;;;;;;;;;5048519;28;20259;-72
2024/01/17 03:03:34;;;;;;;0.33;0.33;;;;;;;;;;5059243;28;20245;-71
2024/01/17 03:06:01;;;;;;;0.73;0.73;;;;;;;;;;5046432;28;20272;-73
2024/01/17 03:08:27;;;;;;;0.30;0.30;;;;;;;;;;5061037;28;20207;-72
2024/01/17 03:10:56;;;;;;;0.33;0.33;;;;;;;;;;5044745;28;20306;-72
2024/01/17 03:13:23;;;;;;;0.30;0.30;;;;;;;;;;5062300;28;20273;-72
2024/01/17 03:15:51;;;;;;;0.40;0.40;;;;;;;;;;5043500;28;20257;-72
2024/01/17 03:18:17;;;;;;;0.33;0.33;;;;;;;;;;5063816;28;20231;-72
2024/01/17 03:20:44;;;;;;;0.40;0.40;;;;;;;;;;5042033;28;20452;-72
2024/01/17 03:23:10;;;;;;;0.30;0.30;;;;;;;;;;5065929;28;20528;-72
2024/01/17 03:25:36;;;;;;;0.33;0.33;;;;;;;;;;5040200;28;20244;-72
2024/01/17 03:28:03;;;;;;;0.30;0.30;;;;;;;;;;5067529;28;20216;-72
2024/01/17 03:30:30;;;;;;;0.30;0.30;;;;;;;;;;5038432;28;20243;-72
2024/01/17 03:32:58;;;;;;;0.30;0.30;;;;;;;;;;5068924;28;20208;-72
2024/01/17 03:35:24;;;;;;;0.30;0.30;;;;;;;;;;5036891;28;20204;-72
2024/01/17 03:37:51;;;;;;;0.30;0.30;;;;;;;;;;5072644;28;20206;-72
2024/01/17 03:40:17;;;;;;;0.30;0.30;;;;;;;;;;5038562;28;20213;-72
2024/01/17 03:42:43;;;;;;;0.40;0.40;;;;;;;;;;5076089;28;20198;-72
2024/01/17 03:45:10;;;;;;;0.30;0.30;;;;;;;;;;5040237;28;20214;-72
2024/01/17 03:47:36;;;;;;;0.40;0.40;;;;;;;;;;5077902;28;20219;-72
2024/01/17 03:50:04;;;;;;;0.30;0.30;;;;;;;;;;5046702;28;20213;-72
2024/01/17 03:52:31;;;;;;;0.33;0.33;;;;;;;;;;5067961;28;20409;-72
2024/01/17 03:54:57;;;;;;;0.37;0.37;;;;;;;;;;5046683;28;20509;-72
2024/01/17 03:57:24;;;;;;;0.30;0.30;;;;;;;;;;5067859;28;20287;-72
2024/01/17 03:59:50;;;;;;;0.30;0.30;;;;;;;;;;5046326;28;20225;-72
2024/01/17 04:02:16;;;;;;;0.30;0.30;;;;;;;;;;5067784;28;20274;-72
2024/01/17 04:04:44;;;;;;;0.30;0.30;;;;;;;;;;5046096;28;20473;-72
2024/01/17 04:07:12;;;;;;;0.50;0.50;;;;;;;;;;5067617;28;20243;-72
2024/01/17 04:09:38;;;;;;;0.37;0.37;;;;;;;;;;5045806;28;20205;-72
2024/01/17 04:12:05;;;;;;;0.40;0.40;;;;;;;;;;5066346;28;20306;-72
2024/01/17 04:14:31;;;;;;;0.40;0.40;;;;;;;;;;5047170;28;20213;-72
2024/01/17 04:16:58;;;;;;;0.40;0.40;;;;;;;;;;5064118;28;20242;-72
2024/01/17 04:19:24;;;;;;;0.40;0.40;;;;;;;;;;5049073;28;20230;-72
2024/01/17 04:21:56;;;;;;;0.40;0.40;;;;;;;;;;5062401;28;20251;-72
2024/01/17 04:24:24;;;;;;;0.37;0.37;;;;;;;;;;5049118;28;20457;-72
2024/01/17 04:26:50;;;;;;;0.37;0.37;;;;;;;;;;5062310;28;20258;-72
2024/01/17 04:29:17;;;;;;;0.37;0.37;;;;;;;;;;5050586;28;20219;-72
2024/01/17 04:31:43;;;;;;;0.30;0.30;;;;;;;;;;5059922;28;20310;-72
2024/01/17 04:34:10;;;;;;;0.30;0.30;;;;;;;;;;5052647;28;20236;-71
2024/01/17 04:36:36;;;;;;;0.40;0.40;;;;;;;;;;5058280;28;20262;-72
2024/01/17 04:39:04;;;;;;;0.40;0.40;;;;;;;;;;5054366;28;20225;-72
2024/01/17 04:41:32;;;;;;;0.30;0.30;;;;;;;;;;5056767;28;20242;-72
2024/01/17 04:43:58;;;;;;;0.30;0.30;;;;;;;;;;5055132;28;20281;-72
2024/01/17 04:46:24;;;;;;;0.40;0.40;;;;;;;;;;5054999;28;20283;-72
2024/01/17 04:48:51;;;;;;;0.40;0.40;;;;;;;;;;5056686;28;20202;-72
2024/01/17 04:51:17;;;;;;;0.40;0.40;;;;;;;;;;5053193;28;20444;-72
2024/01/17 04:53:44;;;;;;;0.40;0.40;;;;;;;;;;5059051;28;20199;-72
2024/01/17 04:56:12;;;;;;;0.40;0.40;;;;;;;;;;5050819;28;20246;-71
2024/01/17 04:58:40;;;;;;;0.37;0.37;;;;;;;;;;5059807;28;20259;-71
2024/01/17 05:01:07;;;;;;;0.40;0.40;;;;;;;;;;5049320;28;20258;-72
2024/01/17 05:03:33;;;;;;;0.30;0.30;;;;;;;;;;5061956;28;20507;-73
2024/01/17 05:06:00;;;;;;;0.30;0.30;;;;;;;;;;5047442;28;20564;-72
2024/01/17 05:08:26;;;;;;;0.40;0.40;;;;;;;;;;5063125;28;20212;-72
2024/01/17 05:10:53;;;;;;;0.40;0.40;;;;;;;;;;5046191;28;20493;-72
2024/01/17 05:13:19;;;;;;;0.40;0.40;;;;;;;;;;5065147;28;20222;-74
2024/01/17 05:15:47;;;;;;;0.30;0.30;;;;;;;;;;5044374;28;20248;-73
2024/01/17 05:18:13;;;;;;;0.30;0.30;;;;;;;;;;5066369;28;20203;-72
2024/01/17 05:20:40;;;;;;;0.30;0.30;;;;;;;;;;5042872;28;20457;-72
2024/01/17 05:23:06;;;;;;;0.30;0.30;;;;;;;;;;5067860;28;20235;-72
2024/01/17 05:25:33;;;;;;;0.30;0.30;;;;;;;;;;5040916;28;20241;-72
2024/01/17 05:27:59;;;;;;;0.30;0.30;;;;;;;;;;5070051;28;20373;-71
2024/01/17 05:30:26;;;;;;;0.30;0.30;;;;;;;;;;5038769;28;20204;-71
2024/01/17 05:32:54;;;;;;;0.30;0.30;;;;;;;;;;5071964;28;20232;-72
2024/01/17 05:35:22;;;;;;;0.30;0.30;;;;;;;;;;5036890;28;20240;-72
2024/01/17 05:37:48;;;;;;;0.30;0.30;;;;;;;;;;5072847;28;20200;-72
2024/01/17 05:40:15;;;;;;;0.30;0.30;;;;;;;;;;5035465;28;20252;-72
2024/01/17 05:42:42;;;;;;;0.40;0.40;;;;;;;;;;5074045;28;20204;-72
2024/01/17 05:45:08;;;;;;;0.30;0.30;;;;;;;;;;5044364;28;20242;-72
2024/01/17 05:47:35;;;;;;;0.30;0.30;;;;;;;;;;5052763;28;20280;-72
2024/01/17 05:50:03;;;;;;;0.33;0.33;;;;;;;;;;5063955;28;20264;-71
2024/01/17 05:52:29;;;;;;;0.40;0.40;;;;;;;;;;5052463;28;20263;-72
2024/01/17 05:54:56;;;;;;;0.40;0.40;;;;;;;;;;5064217;28;20209;-73
2024/01/17 05:57:22;;;;;;;0.40;0.40;;;;;;;;;;5052548;28;20239;-73
2024/01/17 05:59:49;;;;;;;0.30;0.30;;;;;;;;;;5063413;28;20457;-72
2024/01/17 06:02:15;;;;;;;0.40;0.40;;;;;;;;;;5051845;28;20240;-72
2024/01/17 06:04:41;;;;;;;0.47;0.47;;;;;;;;;;5063645;28;20288;-71
2024/01/17 06:07:09;;;;;;;0.40;0.40;;;;;;;;;;5052089;28;20245;-72
2024/01/17 06:09:36;;;;;;;0.30;0.30;;;;;;;;;;5064030;28;20208;-72
2024/01/17 06:12:03;;;;;;;0.30;0.30;;;;;;;;;;5052159;28;20247;-72
2024/01/17 06:14:29;;;;;;;0.30;0.30;;;;;;;;;;5063615;28;20236;-72
2024/01/17 06:16:55;;;;;;;0.40;0.40;;;;;;;;;;5052374;28;20242;-72
2024/01/17 06:19:22;;;;;;;0.40;0.40;;;;;;;;;;5063430;28;20228;-72
2024/01/17 06:21:48;;;;;;;0.30;0.30;;;;;;;;;;5052426;28;20325;-73
2024/01/17 06:24:16;;;;;;;0.30;0.30;;;;;;;;;;5063354;28;20204;-72
2024/01/17 06:26:42;;;;;;;0.40;0.40;;;;;;;;;;5052246;28;20242;-72
2024/01/17 06:29:09;;;;;;;0.30;0.30;;;;;;;;;;5063368;28;20238;-71
2024/01/17 06:31:36;;;;;;;0.30;0.30;;;;;;;;;;5052450;28;20294;-72
2024/01/17 06:34:02;;;;;;;0.40;0.40;;;;;;;;;;5063314;28;20250;-72
2024/01/17 06:36:29;;;;;;;0.40;0.40;;;;;;;;;;5052486;28;20508;-72
2024/01/17 06:38:55;;;;;;;0.40;0.40;;;;;;;;;;5062819;28;20248;-72
2024/01/17 06:41:23;;;;;;;0.30;0.30;;;;;;;;;;5052515;28;20314;-72
2024/01/17 06:43:49;;;;;;;0.30;0.30;;;;;;;;;;5062726;28;20529;-72
2024/01/17 06:46:16;;;;;;;0.40;0.40;;;;;;;;;;5052526;28;20451;-72
2024/01/17 06:48:42;;;;;;;0.30;0.30;;;;;;;;;;5062613;28;20249;-71
2024/01/17 06:51:08;;;;;;;0.30;0.30;;;;;;;;;;5052403;28;20299;-72
2024/01/17 06:53:35;;;;;;;0.30;0.30;;;;;;;;;;5062519;28;20278;-72
2024/01/17 06:56:01;;;;;;;0.30;0.30;;;;;;;;;;5052414;28;20243;-72
2024/01/17 06:58:29;;;;;;;0.30;0.30;;;;;;;;;;5062591;28;20205;-72
2024/01/17 07:00:56;;;;;;;0.30;0.30;;;;;;;;;;5052411;28;20238;-71
2024/01/17 07:03:22;;;;;;;0.40;0.40;;;;;;;;;;5062262;28;20195;-72
2024/01/17 07:05:48;;;;;;;0.30;0.30;;;;;;;;;;5052201;28;20276;-72
2024/01/17 07:08:15;;;;;;;0.40;0.40;;;;;;;;;;5062216;28;20269;-72
2024/01/17 07:10:44;;;;;;;0.30;0.30;;;;;;;;;;5052791;28;20233;-72
2024/01/17 07:13:11;;;;;;;0.37;0.37;;;;;;;;;;5064943;28;20242;-72
2024/01/17 07:15:39;;;;;;;0.30;0.30;;;;;;;;;;5056771;28;20239;-72
2024/01/17 07:18:05;;;;;;;0.30;0.30;;;;;;;;;;5065946;28;20236;-72
2024/01/17 07:20:32;;;;;;;0.30;0.30;;;;;;;;;;5056627;28;20248;-71
2024/01/17 07:22:58;;;;;;;0.47;0.47;;;;;;;;;;5065859;28;20194;-72
2024/01/17 07:25:24;;;;;;;0.37;0.37;;;;;;;;;;5056681;28;20281;-71
2024/01/17 07:27:51;;;;;;;0.40;0.40;;;;;;;;;;5065665;28;20193;-72
2024/01/17 07:30:19;;;;;;;0.60;0.60;;;;;;;;;;5056600;28;20448;-72
2024/01/17 07:32:47;;;;;;;0.60;0.60;;;;;;;;;;5065572;28;20381;-73
2024/01/17 07:35:14;;;;;;;0.30;0.30;;;;;;;;;;5056690;28;20525;-72
2024/01/17 07:37:40;;;;;;;0.30;0.30;;;;;;;;;;5065340;28;20207;-72
2024/01/17 07:40:09;;;;;;;0.30;0.30;;;;;;;;;;5066750;28;20315;-72
2024/01/17 07:42:35;;;;;;;0.30;0.30;;;;;;;;;;5054931;28;20564;-72
2024/01/17 07:45:02;;;;;;;0.40;0.40;;;;;;;;;;5066685;28;20236;-72
2024/01/17 07:47:28;;;;;;;0.30;0.30;;;;;;;;;;5054894;28;20288;-71
2024/01/17 07:49:59;;;;;;;0.30;0.30;;;;;;;;;;5066730;28;20385;-71
2024/01/17 07:52:26;;;;;;;0.30;0.30;;;;;;;;;;5054906;28;20244;-72
2024/01/17 07:54:52;;;;;;;0.30;0.30;;;;;;;;;;5066621;28;20205;-76
2024/01/17 07:57:19;;;;;;;0.40;0.40;;;;;;;;;;5054926;28;20590;-74
2024/01/17 07:59:45;;;;;;;0.40;0.40;;;;;;;;;;5066465;28;20229;-73
2024/01/17 08:02:12;;;;;;;0.30;0.30;;;;;;;;;;5054780;28;20275;-75
2024/01/17 08:04:38;;;;;;;0.37;0.37;;;;;;;;;;5065912;28;20335;-75
2024/01/17 08:07:06;;;;;;;0.30;0.30;;;;;;;;;;5054811;28;20511;-75
2024/01/17 08:09:32;;;;;;;0.40;0.40;;;;;;;;;;5066136;28;20272;-75
2024/01/17 08:12:00;;;;;;;0.30;0.30;;;;;;;;;;5054746;28;20261;-75
2024/01/17 08:14:26;;;;;;;0.30;0.30;;;;;;;;;;5065975;28;20219;-75
2024/01/17 08:16:53;;;;;;;0.30;0.30;;;;;;;;;;5054820;28;20246;-75
2024/01/17 08:19:19;;;;;;;0.30;0.30;;;;;;;;;;5065504;28;20204;-74
2024/01/17 08:21:46;;;;;;;0.40;0.40;;;;;;;;;;5054742;28;20259;-75
2024/01/17 08:24:14;;;;;;;0.40;0.40;;;;;;;;;;5064486;28;20204;-75
2024/01/17 08:26:40;;;;;;;0.30;0.30;;;;;;;;;;5054616;28;20245;-73
2024/01/17 08:29:07;;;;;;;0.30;0.30;;;;;;;;;;5065545;28;20203;-74
2024/01/17 08:31:33;;;;;;;0.30;0.30;;;;;;;;;;5054541;28;20239;-75
2024/01/17 08:34:00;;;;;;;0.30;0.30;;;;;;;;;;5065354;28;20230;-74
2024/01/17 08:36:28;;;;;;;0.30;0.30;;;;;;;;;;5054423;28;20261;-74
2024/01/17 08:38:55;;;;;;;0.53;0.53;;;;;;;;;;5064966;28;20227;-74
2024/01/17 08:41:23;;;;;;;0.30;0.30;;;;;;;;;;5054485;28;20276;-74
2024/01/17 08:43:50;;;;;;;0.30;0.30;;;;;;;;;;5065067;28;20464;-74
2024/01/17 08:46:16;;;;;;;0.37;0.37;;;;;;;;;;5054521;28;20587;-74
2024/01/17 08:48:43;;;;;;;0.40;0.40;;;;;;;;;;5064528;28;20424;-74
2024/01/17 08:51:09;;;;;;;0.30;0.30;;;;;;;;;;5054502;28;20486;-74
2024/01/17 08:53:35;;;;;;;0.37;0.37;;;;;;;;;;5064278;28;20213;-74
2024/01/17 08:56:05;;;;;;;0.30;0.30;;;;;;;;;;5054343;28;20243;-74
2024/01/17 08:58:32;;;;;;;0.40;0.40;;;;;;;;;;5064570;28;20204;-74
2024/01/17 09:00:59;;;;;;;0.33;0.33;;;;;;;;;;5054152;28;20242;-74
2024/01/17 09:03:28;;;;;;;0.30;0.30;;;;;;;;;;5063926;28;20220;-74
2024/01/17 09:05:55;;;;;;;0.30;0.30;;;;;;;;;;5053960;28;20291;-74
2024/01/17 09:08:21;;;;;;;0.30;0.30;;;;;;;;;;5063912;28;20214;-75
2024/01/17 09:10:48;;;;;;;0.63;0.63;;;;;;;;;;5054140;28;20263;-74
2024/01/17 09:13:14;;;;;;;0.30;0.30;;;;;;;;;;5064261;28;20207;-74
2024/01/17 09:15:43;;;;;;;0.30;0.30;;;;;;;;;;5054396;28;20290;-75
2024/01/17 09:18:10;;;;;;;0.30;0.30;;;;;;;;;;5063964;28;20205;-74
2024/01/17 09:20:36;;;;;;;0.30;0.30;;;;;;;;;;5053848;28;20259;-74
2024/01/17 09:23:03;;;;;;;0.30;0.30;;;;;;;;;;5063943;28;20199;-74
2024/01/17 09:25:29;;;;;;;0.30;0.30;;;;;;;;;;5054451;28;20294;-74
2024/01/17 09:27:56;;;;;;;0.30;0.30;;;;;;;;;;5063568;28;20186;-74
2024/01/17 09:30:22;;;;;;;0.40;0.40;;;;;;;;;;5053793;28;20277;-74
2024/01/17 09:32:50;;;;;;;0.30;0.30;;;;;;;;;;5063427;28;20194;-75
2024/01/17 09:35:17;;;;;;;0.30;0.30;;;;;;;;;;5053914;28;20210;-74
2024/01/17 09:37:43;;;;;;;0.30;0.30;;;;;;;;;;5063457;28;20195;-74
2024/01/17 09:40:10;;;;;;;0.30;0.30;;;;;;;;;;5056269;28;20229;-74
2024/01/17 09:42:38;;;;;;;0.30;0.30;;;;;;;;;;5063380;28;20249;-74
2024/01/17 09:45:05;;;;;;;0.30;0.30;;;;;;;;;;5064094;28;20211;-74
2024/01/17 09:47:32;;;;;;;0.30;0.30;;;;;;;;;;5052770;28;20258;-73
2024/01/17 09:50:00;;;;;;;0.30;0.30;;;;;;;;;;5064411;28;20263;-74
2024/01/17 09:52:26;;;;;;;0.30;0.30;;;;;;;;;;5052878;28;20357;-74
2024/01/17 09:54:53;;;;;;;0.30;0.30;;;;;;;;;;5064189;28;20203;-74
2024/01/17 09:57:22;;;;;;;0.30;0.30;;;;;;;;;;5052538;28;20250;-74
2024/01/17 09:59:50;;;;;;;0.20;0.20;;;;;;;;;;5063890;28;20205;-74
2024/01/17 10:02:17;;;;;;;0.30;0.30;;;;;;;;;;5052560;28;20241;-74
2024/01/17 10:04:44;;;;;;;0.20;0.20;;;;;;;;;;5063707;28;20245;-74
2024/01/17 10:07:12;;;;;;;0.20;0.20;;;;;;;;;;5052566;28;20353;-74
2024/01/17 10:09:38;;;;;;;0.30;0.30;;;;;;;;;;5063559;28;20211;-74
2024/01/17 10:12:05;;;;;;;0.30;0.30;;;;;;;;;;5052430;28;20242;-74
2024/01/17 10:14:32;;;;;;;0.27;0.27;;;;;;;;;;5063713;28;20244;-74
2024/01/17 10:16:58;;;;;;;0.23;0.23;;;;;;;;;;5052566;28;20574;-74
2024/01/17 10:19:25;;;;;;;0.20;0.20;;;;;;;;;;5063708;28;20464;-74
2024/01/17 10:21:52;;;;;;;0.20;0.20;;;;;;;;;;5052323;28;20253;-75
2024/01/17 10:24:20;;;;;;;0.20;0.20;;;;;;;;;;5063362;28;20370;-74
2024/01/17 10:26:48;;;;;;;0.20;0.20;;;;;;;;;;5052365;28;20240;-74
2024/01/17 10:29:15;;;;;;;0.30;0.30;;;;;;;;;;5063277;28;20204;-74
2024/01/17 10:31:41;;;;;;;0.30;0.30;;;;;;;;;;5052293;28;20269;-74
2024/01/17 10:34:08;;;;;;;0.20;0.20;;;;;;;;;;5063180;28;20275;-74
2024/01/17 10:36:35;;;;;;;0.20;0.20;;;;;;;;;;5052492;28;20242;-74
2024/01/17 10:39:03;;;;;;;0.30;0.30;;;;;;;;;;5063245;28;20237;-74
2024/01/17 10:41:32;;;;;;;0.20;0.20;;;;;;;;;;5052204;28;20257;-74
2024/01/17 10:44:01;;;;;;;0.20;0.20;;;;;;;;;;5063195;28;20506;-74
2024/01/17 10:46:28;;;;;;;0.20;0.20;;;;;;;;;;5052696;28;20460;-74
2024/01/17 10:48:56;;;;;;;0.30;0.30;;;;;;;;;;5067106;28;20221;-74
2024/01/17 10:51:23;;;;;;;0.30;0.30;;;;;;;;;;5056580;28;20242;-75
2024/01/17 10:53:49;;;;;;;0.30;0.30;;;;;;;;;;5067252;28;20520;-74
2024/01/17 10:56:18;;;;;;;0.30;0.30;;;;;;;;;;5056403;28;20268;-74
2024/01/17 10:58:48;;;;;;;0.30;0.30;;;;;;;;;;5067058;28;20204;-75
2024/01/17 11:01:15;;;;;;;0.30;0.30;;;;;;;;;;5056390;28;20276;-74
2024/01/17 11:03:45;;;;;;;0.30;0.30;;;;;;;;;;5066607;28;20207;-74
2024/01/17 11:06:12;;;;;;;0.30;0.30;;;;;;;;;;5056188;28;20240;-74
2024/01/17 11:08:38;;;;;;;0.30;0.30;;;;;;;;;;5066494;28;20294;-74
2024/01/17 11:11:06;;;;;;;0.30;0.30;;;;;;;;;;5056354;28;20304;-73
2024/01/17 11:13:33;;;;;;;0.30;0.30;;;;;;;;;;5066473;28;20198;-74
2024/01/17 11:16:01;;;;;;;0.30;0.30;;;;;;;;;;5056317;28;20247;-74
2024/01/17 11:18:29;;;;;;;0.20;0.20;;;;;;;;;;5066461;28;20514;-74
2024/01/17 11:20:56;;;;;;;0.30;0.30;;;;;;;;;;5056091;28;20301;-74
2024/01/17 11:23:25;;;;;;;0.30;0.30;;;;;;;;;;5066264;28;20374;-74
2024/01/17 11:26:00;;;;;;;1.30;1.30;;;;;;;;;;5056220;28;20242;-75
2024/01/17 11:28:29;;;;;;;0.30;0.30;;;;;;;;;;5065908;28;20316;-74
2024/01/17 11:31:01;;;;;;;0.30;0.30;;;;;;;;;;5056246;28;20505;-74
2024/01/17 11:33:31;;;;;;;0.30;0.30;;;;;;;;;;5065951;28;20232;-74
2024/01/17 11:35:57;;;;;;;0.20;0.20;;;;;;;;;;5056043;28;20448;-74
2024/01/17 11:38:31;;;;;;;0.20;0.20;;;;;;;;;;5065797;28;20202;-74
2024/01/17 11:41:00;;;;;;;0.30;0.30;;;;;;;;;;5055558;28;20247;-74
2024/01/17 11:43:29;;;;;;;0.30;0.30;;;;;;;;;;5066036;28;20418;-74
2024/01/17 11:45:56;;;;;;;0.20;0.20;;;;;;;;;;5055573;28;20321;-74
2024/01/17 11:48:24;;;;;;;0.30;0.30;;;;;;;;;;5065515;28;20215;-76
2024/01/17 11:50:58;;;;;;;0.30;0.30;;;;;;;;;;5055584;28;20591;-75
2024/01/17 11:53:26;;;;;;;0.30;0.30;;;;;;;;;;5065825;28;20536;-75
2024/01/17 11:55:53;;;;;;;0.23;0.23;;;;;;;;;;5055870;28;20259;-75
2024/01/17 11:58:21;;;;;;;0.30;0.30;;;;;;;;;;5065714;28;20507;-75
2024/01/17 12:00:50;;;;;;;0.30;0.30;;;;;;;;;;5055673;28;20302;-75
2024/01/17 12:03:29;;;;;;;0.30;0.30;;;;;;;;;;5065589;28;20195;-75
2024/01/17 12:05:56;;;;;;;0.30;0.30;;;;;;;;;;5055219;28;20243;-76
2024/01/17 12:08:23;;;;;;;0.23;0.23;;;;;;;;;;5065614;28;20207;-75
2024/01/17 12:10:52;;;;;;;0.30;0.30;;;;;;;;;;5055274;28;20250;-75
2024/01/17 12:13:19;;;;;;;2.47;2.37;;;;;;;;;;5065372;28;20194;-76
2024/01/17 12:15:46;;;;;;;0.20;0.20;;;;;;;;;;5055094;28;20238;-76
2024/01/17 12:18:12;;;;;;;0.30;0.30;;;;;;;;;;5065082;28;20195;-75
2024/01/17 12:20:39;;;;;;;0.30;0.30;;;;;;;;;;5055478;28;20464;-75
2024/01/17 12:23:08;;;;;;;0.30;0.30;;;;;;;;;;5065035;28;20274;-75
2024/01/17 12:25:35;;;;;;;0.23;0.23;;;;;;;;;;5055002;28;20259;-76
2024/01/17 12:28:02;;;;;;;0.30;0.30;;;;;;;;;;5064221;28;20206;-75
2024/01/17 12:30:29;;;;;;;0.27;0.27;;;;;;;;;;5055475;28;20262;-74
2024/01/17 12:32:56;;;;;;;0.30;0.30;;;;;;;;;;5065085;28;20224;-76
2024/01/17 12:35:23;;;;;;;0.23;0.23;;;;;;;;;;5055416;28;20215;-75
2024/01/17 12:37:49;;;;;;;0.20;0.20;;;;;;;;;;5064695;28;20518;-75
2024/01/17 12:40:17;;;;;;;0.30;0.30;;;;;;;;;;5054949;28;20245;-75
2024/01/17 12:42:47;;;;;;;0.20;0.20;;;;;;;;;;5064627;28;20246;-76
2024/01/17 12:45:14;;;;;;;0.20;0.20;;;;;;;;;;5055403;28;20374;-75
2024/01/17 12:47:40;;;;;;;0.30;0.30;;;;;;;;;;5064583;28;20195;-76
2024/01/17 12:50:08;;;;;;;0.23;0.23;;;;;;;;;;5065133;28;20204;-75
2024/01/17 12:52:35;;;;;;;0.30;0.30;;;;;;;;;;5050533;28;20277;-75
2024/01/17 12:55:04;;;;;;;0.67;0.67;;;;;;;;;;5029948;28;20266;-75
2024/01/17 12:57:34;;;;;;;0.30;0.30;;;;;;;;;;5028785;28;20236;-76
2024/01/17 13:00:04;;;;;;;0.20;0.20;;;;;;;;;;5045334;28;20218;-75
2024/01/17 13:02:31;;;;;;;0.27;0.27;;;;;;;;;;5021113;28;20239;-75
2024/01/17 13:05:07;;;;;;;0.30;0.30;;;;;;;;;;5026323;28;20220;-76
2024/01/17 13:07:34;;;;;;;0.20;0.20;;;;;;;;;;5017316;28;20234;-76
2024/01/17 13:10:14;;;;;;;0.20;0.20;;;;;;;;;;5028236;28;20383;-76
2024/01/17 13:12:42;;;;;;;0.20;0.20;;;;;;;;;;5013892;28;20204;-76
2024/01/17 13:15:08;;;;;;;0.20;0.20;;;;;;;;;;5025284;28;20216;-76
2024/01/17 13:17:35;;;;;;;0.20;0.20;;;;;;;;;;5014006;28;20208;-76
2024/01/17 13:20:05;;;;;;;0.23;0.23;;;;;;;;;;5025173;28;20280;-76
2024/01/17 13:22:32;;;;;;;0.20;0.20;;;;;;;;;;5013901;28;20236;-76
2024/01/17 13:24:59;;;;;;;0.30;0.30;;;;;;;;;;5025045;28;20203;-76
2024/01/17 13:27:26;;;;;;;0.20;0.20;;;;;;;;;;5013722;28;20248;-76
2024/01/17 13:29:56;;;;;;;0.20;0.20;;;;;;;;;;5024920;28;20201;-76
2024/01/17 13:32:23;;;;;;;0.30;0.30;;;;;;;;;;5013783;28;20238;-76
2024/01/17 13:34:50;;;;;;;0.20;0.20;;;;;;;;;;5025014;28;20231;-76
2024/01/17 13:37:16;;;;;;;0.20;0.20;;;;;;;;;;5013598;28;20301;-76
2024/01/17 13:39:42;;;;;;;0.20;0.20;;;;;;;;;;5024633;28;20274;-76
2024/01/17 13:42:11;;;;;;;0.30;0.30;;;;;;;;;;5013707;28;20259;-76
2024/01/17 13:44:38;;;;;;;0.20;0.20;;;;;;;;;;5024613;28;20227;-76
2024/01/17 13:47:06;;;;;;;0.30;0.30;;;;;;;;;;5013173;28;20256;-76
2024/01/17 13:49:36;;;;;;;0.20;0.20;;;;;;;;;;5024567;28;20240;-76
2024/01/17 13:52:03;;;;;;;0.20;0.20;;;;;;;;;;5013473;28;20266;-77
2024/01/17 13:54:30;;;;;;;0.83;0.83;;;;;;;;;;5024457;28;20208;-77
2024/01/17 13:56:57;;;;;;;0.20;0.20;;;;;;;;;;5013388;28;20302;-77
2024/01/17 13:59:23;;;;;;;0.20;0.20;;;;;;;;;;5024421;28;20291;-77
2024/01/17 14:01:49;;;;;;;2.93;2.83;;;;;;;;;;5013557;28;20582;-77
2024/01/17 14:04:18;;;;;;;0.20;0.20;;;;;;;;;;5024023;28;20203;-77
2024/01/17 14:06:45;;;;;;;0.30;0.30;;;;;;;;;;5013395;28;20243;-77
2024/01/17 14:09:13;;;;;;;0.20;0.20;;;;;;;;;;5023915;28;20209;-77
2024/01/17 14:11:40;;;;;;;0.30;0.30;;;;;;;;;;5013327;28;20282;-77
2024/01/17 14:14:06;;;;;;;0.20;0.20;;;;;;;;;;5023917;28;20208;-77
2024/01/17 14:16:33;;;;;;;0.20;0.20;;;;;;;;;;5013279;28;20271;-77
2024/01/17 14:19:00;;;;;;;0.20;0.20;;;;;;;;;;5023751;28;20224;-77
2024/01/17 14:21:26;;;;;;;0.30;0.30;;;;;;;;;;5012327;28;20260;-77
2024/01/17 14:23:53;;;;;;;0.30;0.30;;;;;;;;;;5023731;28;20209;-77
2024/01/17 14:26:19;;;;;;;0.20;0.20;;;;;;;;;;5013332;28;20264;-77
2024/01/17 14:28:46;;;;;;;0.20;0.20;;;;;;;;;;5023347;28;20239;-77
2024/01/17 14:31:13;;;;;;;0.20;0.20;;;;;;;;;;5013237;28;20315;-77
2024/01/17 14:33:40;;;;;;;0.20;0.20;;;;;;;;;;5023564;28;20389;-81
2024/01/17 14:36:07;;;;;;;0.20;0.20;;;;;;;;;;5013494;28;20247;-79
2024/01/17 14:38:34;;;;;;;0.20;0.20;;;;;;;;;;5023297;28;20250;-81
2024/01/17 14:41:01;;;;;;;0.20;0.20;;;;;;;;;;5013551;28;20270;-80
2024/01/17 14:43:27;;;;;;;0.20;0.20;;;;;;;;;;5023057;28;20225;-80